createdAt,value
2023-07-20T00:01:59.494Z,96544.88
2023-07-20T00:04:01.687Z,96548.94
2023-07-20T00:06:05.274Z,96536.50
2023-07-20T00:08:06.844Z,96543.19
2023-07-20T00:10:08.947Z,96547.84
2023-07-20T00:12:10.574Z,96544.34
2023-07-20T00:14:12.452Z,96546.91
2023-07-20T00:16:14.187Z,96537.00
2023-07-20T00:18:16.486Z,96543.25
2023-07-20T00:20:18.877Z,96542.47
2023-07-20T00:22:20.449Z,96545.50
2023-07-20T00:24:22.074Z,96535.97
2023-07-20T00:26:24.056Z,96540.09
2023-07-20T00:28:26.036Z,96539.94
2023-07-20T00:30:27.854Z,96537.44
2023-07-20T00:32:29.579Z,96536.63
2023-07-20T00:34:32.767Z,96543.31
2023-07-20T00:36:34.308Z,96541.16
2023-07-20T00:38:37.946Z,96539.03
2023-07-20T00:40:41.150Z,96536.19
2023-07-20T00:42:42.734Z,96535.63
2023-07-20T00:44:44.408Z,96538.53
2023-07-20T00:46:47.626Z,96543.78
2023-07-20T00:48:49.453Z,96538.19
2023-07-20T00:50:51.582Z,96544.69
2023-07-20T00:52:53.857Z,96550.50
2023-07-20T00:54:57.437Z,96544.50
2023-07-20T00:56:59.920Z,96542.69
2023-07-20T00:59:01.840Z,96540.56
2023-07-20T01:01:03.564Z,96543.88
2023-07-20T01:03:05.365Z,96552.09
2023-07-20T01:05:08.549Z,96546.63
2023-07-20T01:07:21.378Z,96542.28
2023-07-20T01:09:32.966Z,96542.41
2023-07-20T01:11:34.519Z,96548.63
2023-07-20T01:13:38.108Z,96549.84
2023-07-20T01:15:40.100Z,96546.22
2023-07-20T01:17:41.798Z,96551.38
2023-07-20T01:19:43.578Z,96540.13
2023-07-20T01:22:10.245Z,96549.44
2023-07-20T01:24:58.372Z,96540.13
2023-07-20T01:27:35.090Z,96546.16
2023-07-20T01:29:42.784Z,96539.31
2023-07-20T01:31:45.642Z,96538.56
2023-07-20T01:33:49.148Z,96539.31
2023-07-20T01:35:57.712Z,96539.47
2023-07-20T01:38:00.359Z,96545.63
2023-07-20T01:40:03.209Z,96543.81
2023-07-20T01:42:05.275Z,96547.53
2023-07-20T01:44:06.922Z,96541.47
2023-07-20T01:46:08.606Z,96541.19
2023-07-20T01:48:10.897Z,96547.25
2023-07-20T01:50:12.457Z,96546.06
2023-07-20T01:52:14.070Z,96550.00
2023-07-20T01:54:15.712Z,96550.47
2023-07-20T01:56:17.792Z,96553.66
2023-07-20T01:58:19.519Z,96546.06
2023-07-20T02:00:24.927Z,96542.09
2023-07-20T02:02:29.427Z,96543.94
2023-07-20T02:04:43.246Z,96544.75
2023-07-20T02:06:45.187Z,96535.00
2023-07-20T02:08:47.201Z,96542.16
2023-07-20T02:10:49.377Z,96550.34
2023-07-20T02:12:51.905Z,96543.66
2023-07-20T02:14:54.033Z,96543.06
2023-07-20T02:16:58.910Z,96538.50
2023-07-20T02:19:03.011Z,96542.28
2023-07-20T02:21:04.724Z,96546.09
2023-07-20T02:23:07.022Z,96539.28
2023-07-20T02:25:09.184Z,96542.47
2023-07-20T02:27:10.754Z,96536.72
2023-07-20T02:29:12.802Z,96542.81
2023-07-20T02:31:14.482Z,96542.03
2023-07-20T02:33:16.186Z,96544.16
2023-07-20T02:35:17.779Z,96549.78
2023-07-20T02:37:19.730Z,96546.28
2023-07-20T02:39:21.331Z,96547.19
2023-07-20T02:41:23.259Z,96549.44
2023-07-20T02:43:25.066Z,96554.75
2023-07-20T02:45:26.662Z,96553.84
2023-07-20T02:47:28.253Z,96554.31
2023-07-20T02:49:29.934Z,96550.50
2023-07-20T02:51:31.686Z,96557.63
2023-07-20T02:53:34.270Z,96555.66
2023-07-20T02:55:36.098Z,96554.59
2023-07-20T02:57:37.648Z,96552.31
2023-07-20T02:59:39.295Z,96554.59
2023-07-20T03:01:43.750Z,96559.28
2023-07-20T03:03:48.635Z,96563.22
2023-07-20T03:05:55.339Z,96565.19
2023-07-20T03:07:57.254Z,96566.56
2023-07-20T03:09:58.991Z,96566.41
2023-07-20T03:12:00.625Z,96563.41
2023-07-20T03:14:02.245Z,96564.75
2023-07-20T03:16:04.025Z,96565.16
2023-07-20T03:18:05.821Z,96567.91
2023-07-20T03:20:10.538Z,96565.81
2023-07-20T03:22:12.068Z,96557.00
2023-07-20T03:24:13.789Z,96563.94
2023-07-20T03:26:15.774Z,96561.53
2023-07-20T03:28:18.057Z,96560.66
2023-07-20T03:30:19.922Z,96565.66
2023-07-20T03:32:21.499Z,96567.94
2023-07-20T03:34:23.073Z,96558.84
2023-07-20T03:36:24.877Z,96570.22
2023-07-20T03:38:27.943Z,96574.56
2023-07-20T03:40:30.211Z,96559.88
2023-07-20T03:42:31.920Z,96564.41
2023-07-20T03:44:33.566Z,96568.66
2023-07-20T03:46:35.270Z,96570.31
2023-07-20T03:48:37.103Z,96571.22
2023-07-20T03:50:39.405Z,96578.19
2023-07-20T03:52:41.328Z,96580.31
2023-07-20T03:54:43.769Z,96578.16
2023-07-20T03:56:45.501Z,96586.03
2023-07-20T03:58:47.287Z,96580.00
2023-07-20T04:00:52.033Z,96580.00
2023-07-20T04:02:53.906Z,96579.84
2023-07-20T04:04:55.845Z,96589.81
2023-07-20T04:06:57.909Z,96588.34
2023-07-20T04:08:59.480Z,96586.50
2023-07-20T04:11:04.216Z,96576.69
2023-07-20T04:13:06.849Z,96590.78
2023-07-20T04:15:09.310Z,96594.56
2023-07-20T04:17:14.199Z,96597.00
2023-07-20T04:19:15.846Z,96593.09
2023-07-20T04:21:18.224Z,96585.81
2023-07-20T04:23:19.874Z,96594.44
2023-07-20T04:25:21.541Z,96600.94
2023-07-20T04:27:23.724Z,96598.53
2023-07-20T04:29:25.436Z,96602.16
2023-07-20T04:31:27.018Z,96597.34
2023-07-20T04:33:29.973Z,96596.44
2023-07-20T04:35:52.906Z,96598.91
2023-07-20T04:38:01.785Z,96587.22
2023-07-20T04:40:04.544Z,96584.06
2023-07-20T04:42:06.161Z,96600.88
2023-07-20T04:44:07.887Z,96599.06
2023-07-20T04:46:10.803Z,96597.69
2023-07-20T04:48:15.194Z,96584.94
2023-07-20T04:50:23.050Z,96599.81
2023-07-20T04:52:37.499Z,96598.88
2023-07-20T04:54:44.667Z,96601.31
2023-07-20T04:56:50.412Z,96599.19
2023-07-20T04:58:54.157Z,96590.78
2023-07-20T05:00:55.926Z,96598.38
2023-07-20T05:02:58.108Z,96590.59
2023-07-20T05:04:59.843Z,96587.88
2023-07-20T05:07:01.461Z,96592.16
2023-07-20T05:09:03.246Z,96594.41
2023-07-20T05:11:05.797Z,96590.59
2023-07-20T05:13:08.155Z,96591.47
2023-07-20T05:15:10.370Z,96591.16
2023-07-20T05:17:14.622Z,96594.16
2023-07-20T05:19:16.294Z,96592.84
2023-07-20T05:21:17.909Z,96596.28
2023-07-20T05:23:23.006Z,96596.44
2023-07-20T05:25:25.011Z,96599.34
2023-07-20T05:27:26.590Z,96594.94
2023-07-20T05:29:28.336Z,96588.22
2023-07-20T05:31:31.628Z,96596.22
2023-07-20T05:33:33.351Z,96597.19
2023-07-20T05:35:34.928Z,96599.06
2023-07-20T05:37:36.510Z,96604.66
2023-07-20T05:39:38.635Z,96596.44
2023-07-20T05:41:40.191Z,96602.66
2023-07-20T05:43:43.239Z,96606.16
2023-07-20T05:45:48.924Z,96605.28
2023-07-20T05:47:50.883Z,96605.63
2023-07-20T05:49:52.595Z,96600.50
2023-07-20T05:51:56.957Z,96604.19
2023-07-20T05:53:58.947Z,96595.25
2023-07-20T05:56:00.489Z,96603.19
2023-07-20T05:58:02.683Z,96604.50
2023-07-20T06:00:04.745Z,96609.31
2023-07-20T06:02:13.805Z,96609.81
2023-07-20T06:04:15.864Z,96612.34
2023-07-20T06:06:17.557Z,96613.22
2023-07-20T06:08:19.174Z,96606.53
2023-07-20T06:10:20.789Z,96611.84
2023-07-20T06:12:22.361Z,96609.97
2023-07-20T06:14:23.909Z,96612.66
2023-07-20T06:16:26.043Z,96615.94
2023-07-20T06:18:27.968Z,96615.69
2023-07-20T06:20:29.634Z,96625.81
2023-07-20T06:22:31.305Z,96624.09
2023-07-20T06:24:32.958Z,96630.78
2023-07-20T06:26:40.209Z,96622.03
2023-07-20T06:28:41.880Z,96625.34
2023-07-20T06:30:43.441Z,96619.56
2023-07-20T06:32:45.724Z,96618.72
2023-07-20T06:34:47.634Z,96621.84
2023-07-20T06:36:49.690Z,96620.50
2023-07-20T06:40:55.933Z,96621.19
2023-07-20T06:45:02.919Z,96627.44
2023-07-20T06:47:06.321Z,96620.78
2023-07-20T06:51:13.538Z,96626.28
2023-07-20T06:53:15.118Z,96639.06
2023-07-20T06:57:23.881Z,96637.09
2023-07-20T06:59:25.868Z,96634.63
2023-07-20T07:01:27.767Z,96633.41
2023-07-20T07:03:29.983Z,96638.22
2023-07-20T07:07:36.465Z,96648.00
2023-07-20T07:09:38.344Z,96646.34
2023-07-20T07:11:40.094Z,96638.78
2023-07-20T07:13:41.917Z,96656.50
2023-07-20T07:17:46.327Z,96641.25
2023-07-20T07:19:49.723Z,96643.06
2023-07-20T07:21:52.795Z,96645.41
2023-07-20T07:23:55.431Z,96647.09
2023-07-20T07:25:57.405Z,96651.38
2023-07-20T07:27:58.932Z,96655.16
2023-07-20T07:30:00.508Z,96647.41
2023-07-20T07:32:02.693Z,96655.25
2023-07-20T07:34:04.266Z,96655.38
2023-07-20T07:36:06.005Z,96656.06
2023-07-20T07:38:19.285Z,96650.13
2023-07-20T07:40:26.350Z,96670.34
2023-07-20T07:42:30.576Z,96650.97
2023-07-20T07:44:32.551Z,96658.81
2023-07-20T07:46:34.208Z,96654.59
2023-07-20T07:48:35.806Z,96657.47
2023-07-20T07:50:37.484Z,96660.16
2023-07-20T07:52:39.019Z,96658.31
2023-07-20T07:54:40.842Z,96662.53
2023-07-20T07:56:42.453Z,96665.19
2023-07-20T07:58:44.155Z,96664.19
2023-07-20T08:00:45.766Z,96668.31
2023-07-20T08:02:49.518Z,96660.16
2023-07-20T08:04:53.570Z,96655.66
2023-07-20T08:06:55.349Z,96667.13
2023-07-20T08:08:56.960Z,96663.38
2023-07-20T08:10:59.523Z,96670.66
2023-07-20T08:13:01.259Z,96664.84
2023-07-20T08:15:03.392Z,96662.88
2023-07-20T08:17:05.909Z,96657.50
2023-07-20T08:19:07.743Z,96664.25
2023-07-20T08:21:09.417Z,96659.91
2023-07-20T08:23:11.017Z,96670.50
2023-07-20T08:25:13.209Z,96660.28
2023-07-20T08:27:14.791Z,96659.91
2023-07-20T08:29:16.436Z,96658.47
2023-07-20T08:31:18.799Z,96654.28
2023-07-20T08:33:21.434Z,96654.53
2023-07-20T08:35:23.371Z,96664.28
2023-07-20T08:37:26.158Z,96659.09
2023-07-20T08:39:27.835Z,96655.34
2023-07-20T08:41:29.622Z,96666.34
2023-07-20T08:43:32.087Z,96662.00
2023-07-20T08:45:35.958Z,96660.53
2023-07-20T08:47:38.514Z,96662.66
2023-07-20T08:49:42.111Z,96665.53
2023-07-20T08:51:44.206Z,96653.78
2023-07-20T08:53:48.385Z,96659.16
2023-07-20T08:55:53.576Z,96671.91
2023-07-20T08:58:00.397Z,96670.56
2023-07-20T09:00:14.020Z,96670.00
2023-07-20T09:02:19.749Z,96673.72
2023-07-20T09:04:21.853Z,96671.38
2023-07-20T09:06:24.201Z,96672.13
2023-07-20T09:08:26.249Z,96673.53
2023-07-20T09:10:27.953Z,96678.59
2023-07-20T09:12:29.550Z,96677.41
2023-07-20T09:14:32.487Z,96677.31
2023-07-20T09:16:51.514Z,96669.22
2023-07-20T09:18:54.422Z,96667.16
2023-07-20T09:21:03.978Z,96680.19
2023-07-20T09:25:16.786Z,96672.72
2023-07-20T09:27:18.314Z,96679.81
2023-07-20T09:29:21.127Z,96676.25
2023-07-20T09:31:23.795Z,96673.94
2023-07-20T09:33:28.811Z,96674.00
2023-07-20T09:35:41.663Z,96674.31
2023-07-20T09:40:18.214Z,96668.09
2023-07-20T09:51:01.091Z,96659.34
2023-07-20T09:55:09.631Z,96665.88
2023-07-20T09:57:14.805Z,96667.00
2023-07-20T09:59:17.127Z,96660.16
2023-07-20T10:01:24.948Z,96663.53
2023-07-20T10:03:33.121Z,96661.53
2023-07-20T10:05:40.749Z,96664.84
2023-07-20T10:07:48.426Z,96661.97
2023-07-20T10:09:53.744Z,96675.34
2023-07-20T10:12:15.238Z,96670.22
2023-07-20T10:14:21.663Z,96669.03
2023-07-20T10:16:30.483Z,96663.06
2023-07-20T10:18:39.192Z,96661.66
2023-07-20T10:21:43.693Z,96658.91
2023-07-20T10:23:05.221Z,96659.69
2023-07-20T10:25:08.035Z,96658.78
2023-07-20T10:27:09.937Z,96659.47
2023-07-20T10:29:13.490Z,96668.50
2023-07-20T10:31:16.757Z,96656.91
2023-07-20T10:33:20.289Z,96661.88
2023-07-20T10:35:21.911Z,96657.81
2023-07-20T10:37:53.950Z,96656.72
2023-07-20T10:39:57.678Z,96657.84
2023-07-20T10:42:09.067Z,96645.00
2023-07-20T10:44:11.445Z,96647.50
2023-07-20T10:46:13.876Z,96637.59
2023-07-20T10:48:18.208Z,96646.13
2023-07-20T10:50:24.138Z,96646.13
2023-07-20T10:52:25.982Z,96642.16
2023-07-20T10:54:27.528Z,96645.63
2023-07-20T10:56:32.107Z,96643.34
2023-07-20T10:58:34.939Z,96643.88
2023-07-20T11:00:37.199Z,96636.81
2023-07-20T11:02:51.338Z,96636.06
2023-07-20T11:04:54.354Z,96639.56
2023-07-20T11:06:56.687Z,96628.44
2023-07-20T11:09:16.243Z,96643.47
2023-07-20T11:11:25.088Z,96630.22
2023-07-20T11:13:27.847Z,96635.53
2023-07-20T11:15:48.149Z,96634.97
2023-07-20T11:17:50.660Z,96636.09
2023-07-20T11:22:08.634Z,96641.88
2023-07-20T11:24:11.352Z,96631.63
2023-07-20T11:26:13.962Z,96630.69
2023-07-20T11:28:15.525Z,96624.94
2023-07-20T11:30:17.647Z,96626.66
2023-07-20T11:32:23.362Z,96617.66
2023-07-20T11:34:25.838Z,96617.53
2023-07-20T11:38:31.879Z,96615.56
2023-07-20T11:40:33.755Z,96619.19
2023-07-20T11:44:40.170Z,96620.03
2023-07-20T11:46:45.783Z,96618.88
2023-07-20T11:48:47.442Z,96623.41
2023-07-20T11:50:49.274Z,96617.94
2023-07-20T11:52:51.226Z,96624.00
2023-07-20T11:54:53.360Z,96623.06
2023-07-20T11:56:56.845Z,96622.28
2023-07-20T11:59:01.204Z,96630.06
2023-07-20T12:01:03.525Z,96619.53
2023-07-20T12:03:11.080Z,96616.50
2023-07-20T12:05:12.820Z,96613.66
2023-07-20T12:07:14.537Z,96618.84
2023-07-20T12:09:18.531Z,96606.19
2023-07-20T12:11:36.676Z,96608.41
2023-07-20T12:13:39.041Z,96612.16
2023-07-20T12:15:40.725Z,96603.13
2023-07-20T12:17:46.666Z,96614.44
2023-07-20T12:19:48.757Z,96605.00
2023-07-20T12:21:50.773Z,96597.06
2023-07-20T12:23:52.359Z,96600.63
2023-07-20T12:25:55.083Z,96594.44
2023-07-20T12:28:03.384Z,96602.72
2023-07-20T12:30:07.083Z,96596.72
2023-07-20T12:32:09.087Z,96607.75
2023-07-20T12:34:12.199Z,96603.94
2023-07-20T12:36:13.823Z,96601.56
2023-07-20T12:38:15.544Z,96595.59
2023-07-20T12:40:17.557Z,96591.56
2023-07-20T12:42:19.101Z,96589.69
2023-07-20T12:44:20.727Z,96595.78
2023-07-20T12:46:24.082Z,96591.72
2023-07-20T12:48:26.383Z,96586.06
2023-07-20T12:50:28.179Z,96586.91
2023-07-20T12:52:29.881Z,96583.09
2023-07-20T12:54:32.317Z,96584.31
2023-07-20T12:58:41.452Z,96577.22
2023-07-20T13:00:46.481Z,96578.75
2023-07-20T13:02:48.441Z,96580.47
2023-07-20T13:04:50.597Z,96570.94
2023-07-20T13:06:52.335Z,96577.81
2023-07-20T13:08:56.932Z,96571.31
2023-07-20T13:10:58.649Z,96572.28
2023-07-20T13:13:01.843Z,96582.03
2023-07-20T13:15:07.106Z,96579.69
2023-07-20T13:17:11.296Z,96584.28
2023-07-20T13:19:13.242Z,96588.53
2023-07-20T13:21:15.018Z,96584.19
2023-07-20T13:23:16.712Z,96586.13
2023-07-20T13:25:20.622Z,96591.44
2023-07-20T13:27:23.634Z,96588.78
2023-07-20T13:29:26.215Z,96590.22
2023-07-20T13:31:29.345Z,96592.47
2023-07-20T13:33:31.225Z,96588.16
2023-07-20T13:35:48.902Z,96580.88
2023-07-20T13:37:51.874Z,96577.69
2023-07-20T13:39:54.164Z,96570.19
2023-07-20T13:41:55.896Z,96572.44
2023-07-20T13:43:58.159Z,96566.56
2023-07-20T13:46:00.205Z,96565.69
2023-07-20T13:48:03.702Z,96559.81
2023-07-20T13:50:08.789Z,96570.78
2023-07-20T13:56:21.229Z,96562.84
2023-07-20T13:58:23.047Z,96557.56
2023-07-20T14:00:28.564Z,96562.19
2023-07-20T14:04:35.181Z,96554.66
2023-07-20T14:06:37.581Z,96552.66
2023-07-20T14:08:39.737Z,96554.69
2023-07-20T14:12:46.155Z,96541.53
2023-07-20T14:14:47.685Z,96544.31
2023-07-20T14:16:49.246Z,96538.63
2023-07-20T14:18:51.525Z,96539.91
2023-07-20T14:20:53.192Z,96540.44
2023-07-20T14:22:54.735Z,96531.38
2023-07-20T14:24:59.246Z,96533.84
2023-07-20T14:27:01.942Z,96532.75
2023-07-20T14:29:03.671Z,96529.38
2023-07-20T14:31:06.314Z,96531.47
2023-07-20T14:33:08.141Z,96526.88
2023-07-20T14:35:11.059Z,96532.81
2023-07-20T14:37:14.653Z,96536.44
2023-07-20T14:39:16.569Z,96530.16
2023-07-20T14:43:20.121Z,96525.53
2023-07-20T14:45:22.234Z,96531.91
2023-07-20T14:47:23.946Z,96520.66
2023-07-20T14:49:27.260Z,96529.09
2023-07-20T14:53:38.827Z,96525.50
2023-07-20T14:55:43.289Z,96523.41
2023-07-20T14:57:44.929Z,96525.41
2023-07-20T14:59:46.431Z,96521.31
2023-07-20T15:01:48.012Z,96528.19
2023-07-20T15:03:53.309Z,96520.91
2023-07-20T15:05:54.949Z,96524.47
2023-07-20T15:07:56.600Z,96512.78
2023-07-20T15:09:58.214Z,96513.94
2023-07-20T15:11:59.783Z,96506.72
2023-07-20T15:14:01.697Z,96500.59
2023-07-20T15:16:03.425Z,96506.25
2023-07-20T15:18:04.996Z,96499.41
2023-07-20T15:20:09.033Z,96499.47
2023-07-20T15:22:11.126Z,96506.50
2023-07-20T15:24:13.842Z,96495.34
2023-07-20T15:26:16.001Z,96496.50
2023-07-20T15:28:17.564Z,96502.84
2023-07-20T15:32:24.697Z,96504.22
2023-07-20T15:34:26.208Z,96497.84
2023-07-20T15:36:28.095Z,96498.09
2023-07-20T15:38:29.684Z,96496.03
2023-07-20T15:40:31.367Z,96496.19
2023-07-20T15:44:37.738Z,96496.94
2023-07-20T15:46:42.414Z,96492.41
2023-07-20T15:48:45.853Z,96492.25
2023-07-20T15:50:47.478Z,96491.13
2023-07-20T15:54:55.807Z,96486.97
2023-07-20T15:56:58.296Z,96483.09
2023-07-20T15:59:00.273Z,96481.28
2023-07-20T16:01:02.028Z,96477.97
2023-07-20T16:03:03.924Z,96481.53
2023-07-20T16:07:10.302Z,96477.00
2023-07-20T16:09:11.781Z,96475.47
2023-07-20T16:11:13.512Z,96465.44
2023-07-20T16:13:15.063Z,96466.03
2023-07-20T16:15:53.437Z,96463.31
2023-07-20T16:17:38.487Z,96469.69
2023-07-20T16:19:40.081Z,96469.25
2023-07-20T16:21:41.621Z,96460.78
2023-07-20T16:23:44.191Z,96465.03
2023-07-20T16:25:47.521Z,96464.59
2023-07-20T16:27:49.107Z,96465.34
2023-07-20T16:29:50.737Z,96459.59
2023-07-20T16:36:01.624Z,96457.97
2023-07-20T16:42:17.133Z,96458.44
2023-07-20T16:44:18.684Z,96463.56
2023-07-20T16:48:25.201Z,96454.97
2023-07-20T16:50:27.222Z,96463.50
2023-07-20T16:52:29.163Z,96449.84
2023-07-20T16:54:30.833Z,96461.25
2023-07-20T16:56:32.531Z,96457.66
2023-07-20T16:58:35.171Z,96449.56
2023-07-20T17:00:38.017Z,96443.91
2023-07-20T17:02:40.256Z,96445.44
2023-07-20T17:04:41.911Z,96446.78
2023-07-20T17:06:43.587Z,96451.81
2023-07-20T17:08:45.122Z,96447.47
2023-07-20T17:10:46.748Z,96448.63
2023-07-20T17:12:48.448Z,96443.84
2023-07-20T17:14:50.912Z,96445.78
2023-07-20T17:16:53.059Z,96444.44
2023-07-20T17:18:56.152Z,96446.88
2023-07-20T17:20:58.047Z,96452.03
2023-07-20T17:22:59.592Z,96453.09
2023-07-20T17:29:10.532Z,96451.28
2023-07-20T17:31:12.254Z,96448.47
2023-07-20T17:33:15.859Z,96456.56
2023-07-20T17:35:17.510Z,96448.19
2023-07-20T17:37:21.834Z,96453.59
2023-07-20T17:40:36.769Z,96451.63
2023-07-20T17:41:46.780Z,96445.19
2023-07-20T17:43:48.518Z,96456.09
2023-07-20T17:45:54.993Z,96446.06
2023-07-20T17:47:57.098Z,96451.56
2023-07-20T17:49:59.168Z,96450.09
2023-07-20T17:52:00.839Z,96447.16
2023-07-20T17:54:02.528Z,96453.75
2023-07-20T17:56:04.246Z,96454.78
2023-07-20T17:58:05.940Z,96447.72
2023-07-20T18:02:15.369Z,96442.22
2023-07-20T18:04:17.342Z,96451.22
2023-07-20T18:06:19.219Z,96443.25
2023-07-20T18:08:20.986Z,96455.03
2023-07-20T18:10:22.681Z,96450.50
2023-07-20T18:12:25.095Z,96445.22
2023-07-20T18:14:26.728Z,96439.97
2023-07-20T18:16:28.706Z,96443.75
2023-07-20T18:18:30.635Z,96443.00
2023-07-20T18:20:33.997Z,96441.69
2023-07-20T18:22:37.157Z,96443.44
2023-07-20T18:24:39.115Z,96449.81
2023-07-20T18:26:40.593Z,96445.03
2023-07-20T18:28:42.095Z,96442.53
2023-07-20T18:30:45.725Z,96445.31
2023-07-20T18:32:48.253Z,96440.34
2023-07-20T18:34:50.403Z,96437.09
2023-07-20T18:36:52.394Z,96443.38
2023-07-20T18:38:55.101Z,96442.66
2023-07-20T18:40:56.719Z,96439.91
2023-07-20T18:42:59.007Z,96440.91
2023-07-20T18:45:00.614Z,96443.91
2023-07-20T18:47:02.353Z,96443.66
2023-07-20T18:49:03.963Z,96439.63
2023-07-20T18:51:07.946Z,96444.66
2023-07-20T18:53:09.676Z,96440.91
2023-07-20T18:55:11.335Z,96438.38
2023-07-20T18:57:12.853Z,96439.38
2023-07-20T18:59:15.229Z,96439.91
2023-07-20T19:01:17.041Z,96443.88
2023-07-20T19:03:18.851Z,96430.59
2023-07-20T19:05:21.360Z,96438.38
2023-07-20T19:07:22.922Z,96429.81
2023-07-20T19:09:24.508Z,96443.84
2023-07-20T19:13:32.699Z,96438.78
2023-07-20T19:15:36.515Z,96443.78
2023-07-20T19:17:38.424Z,96446.50
2023-07-20T19:19:40.096Z,96446.03
2023-07-20T19:21:41.797Z,96444.25
2023-07-20T19:23:43.720Z,96449.22
2023-07-20T19:25:45.463Z,96450.00
2023-07-20T19:27:47.531Z,96442.00
2023-07-20T19:29:49.094Z,96445.53
2023-07-20T19:31:50.771Z,96448.22
2023-07-20T19:33:52.323Z,96440.72
2023-07-20T19:35:54.234Z,96447.19
2023-07-20T19:37:56.209Z,96453.63
2023-07-20T19:39:57.826Z,96456.56
2023-07-20T19:41:59.729Z,96456.81
2023-07-20T19:44:01.252Z,96460.09
2023-07-20T19:46:03.932Z,96463.31
2023-07-20T19:48:07.421Z,96458.06
2023-07-20T19:50:09.580Z,96462.56
2023-07-20T19:52:12.155Z,96463.38
2023-07-20T19:56:18.403Z,96468.34
2023-07-20T19:58:19.949Z,96477.53
2023-07-20T20:01:43.886Z,96475.81
2023-07-20T20:04:56.703Z,96476.53
2023-07-20T20:07:00.916Z,96474.53
2023-07-20T20:09:02.885Z,96477.72
2023-07-20T20:13:10.015Z,96473.63
2023-07-20T20:15:11.947Z,96469.28
2023-07-20T20:17:13.680Z,96462.75
2023-07-20T20:19:15.431Z,96470.97
2023-07-20T20:21:17.258Z,96465.78
2023-07-20T20:23:20.858Z,96458.97
2023-07-20T20:25:22.503Z,96469.16
2023-07-20T20:27:24.750Z,96462.59
2023-07-20T20:29:26.415Z,96467.03
2023-07-20T20:31:28.240Z,96468.59
2023-07-20T20:33:29.846Z,96464.63
2023-07-20T20:35:34.547Z,96466.13
2023-07-20T20:37:37.003Z,96464.69
2023-07-20T20:39:38.701Z,96460.13
2023-07-20T20:41:47.419Z,96462.13
2023-07-20T20:43:49.469Z,96457.16
2023-07-20T20:45:51.941Z,96455.94
2023-07-20T20:47:53.450Z,96455.41
2023-07-20T20:49:55.321Z,96448.72
2023-07-20T20:51:57.302Z,96446.84
2023-07-20T20:53:59.041Z,96449.44
2023-07-20T20:56:01.169Z,96442.25
2023-07-20T20:58:03.038Z,96441.00
2023-07-20T21:00:07.670Z,96432.75
2023-07-20T21:02:10.396Z,96437.16
2023-07-20T21:04:11.977Z,96431.88
2023-07-20T21:06:13.571Z,96430.63
2023-07-20T21:08:16.305Z,96435.22
2023-07-20T21:10:18.645Z,96437.47
2023-07-20T21:12:20.179Z,96435.94
2023-07-20T21:14:21.709Z,96431.50
2023-07-20T21:16:23.719Z,96427.69
2023-07-20T21:18:25.439Z,96423.94
2023-07-20T21:20:27.007Z,96423.44
2023-07-20T21:22:28.805Z,96423.19
2023-07-20T21:24:30.426Z,96418.97
2023-07-20T21:26:32.037Z,96422.41
2023-07-20T21:28:33.710Z,96424.72
2023-07-20T21:30:35.605Z,96427.81
2023-07-20T21:32:38.116Z,96421.50
2023-07-20T21:34:39.984Z,96428.03
2023-07-20T21:36:42.378Z,96424.91
2023-07-20T21:38:44.036Z,96421.19
2023-07-20T21:40:45.570Z,96421.00
2023-07-20T21:42:47.430Z,96436.41
2023-07-20T21:44:49.042Z,96433.25
2023-07-20T21:46:51.303Z,96415.66
2023-07-20T21:48:52.853Z,96426.66
2023-07-20T21:50:55.683Z,96426.97
2023-07-20T21:52:59.626Z,96419.69
2023-07-20T21:55:04.435Z,96431.88
2023-07-20T21:57:08.382Z,96427.56
2023-07-20T21:59:10.351Z,96428.03
2023-07-20T22:01:40.303Z,96427.78
2023-07-20T22:03:33.578Z,96426.38
2023-07-20T22:05:35.800Z,96425.81
2023-07-20T22:07:37.879Z,96420.66
2023-07-20T22:09:40.440Z,96423.56
2023-07-20T22:11:42.263Z,96425.34
2023-07-20T22:13:43.943Z,96418.88
2023-07-20T22:15:45.628Z,96422.00
2023-07-20T22:17:47.691Z,96421.22
2023-07-20T22:19:49.355Z,96419.25
2023-07-20T22:21:51.312Z,96422.22
2023-07-20T22:23:52.894Z,96416.94
2023-07-20T22:25:54.513Z,96414.91
2023-07-20T22:27:56.025Z,96423.72
2023-07-20T22:29:57.605Z,96418.91
2023-07-20T22:31:59.461Z,96411.59
2023-07-20T22:34:01.092Z,96413.72
2023-07-20T22:36:03.041Z,96407.88
2023-07-20T22:38:04.639Z,96417.75
2023-07-20T22:40:07.037Z,96414.34
2023-07-20T22:42:08.778Z,96413.78
2023-07-20T22:44:10.348Z,96410.38
2023-07-20T22:46:12.059Z,96416.66
2023-07-20T22:48:16.449Z,96413.34
2023-07-20T22:50:18.626Z,96406.22
2023-07-20T22:52:20.122Z,96407.31
2023-07-20T22:54:22.167Z,96409.47
2023-07-20T22:56:23.979Z,96408.91
2023-07-20T22:58:25.793Z,96408.63
2023-07-20T23:00:29.660Z,96414.47
2023-07-20T23:02:31.790Z,96405.28
2023-07-20T23:04:34.876Z,96409.09
2023-07-20T23:06:36.735Z,96409.34
2023-07-20T23:08:38.380Z,96407.78
2023-07-20T23:10:39.960Z,96410.44
2023-07-20T23:12:41.872Z,96400.44
2023-07-20T23:14:43.579Z,96408.78
2023-07-20T23:16:45.359Z,96395.16
2023-07-20T23:18:47.619Z,96404.09
2023-07-20T23:20:49.482Z,96397.88
2023-07-20T23:22:52.291Z,96391.81
2023-07-20T23:24:54.026Z,96388.16
2023-07-20T23:26:56.123Z,96386.25
2023-07-20T23:28:57.591Z,96391.59
2023-07-20T23:31:00.637Z,96384.56
2023-07-20T23:33:02.291Z,96382.41
2023-07-20T23:35:04.127Z,96385.38
2023-07-20T23:37:06.545Z,96384.34
2023-07-20T23:39:09.430Z,96382.22
2023-07-20T23:41:11.112Z,96378.69
2023-07-20T23:43:13.102Z,96389.28
2023-07-20T23:45:15.393Z,96375.53
2023-07-20T23:47:18.266Z,96381.13
2023-07-20T23:49:20.712Z,96381.31
2023-07-20T23:51:24.954Z,96382.56
2023-07-20T23:53:26.657Z,96378.00
2023-07-20T23:55:29.423Z,96378.75
2023-07-20T23:57:32.478Z,96389.69
2023-07-20T23:59:35.455Z,96384.97
